Time;durP1;ratioP1;P1;durP2;ratioP2;P2;SDS_P1;SDS_P2;PMS_P1;PMS_P2;Temp;Humidity;BMP_temperature;BMP_pressure;BME280_temperature;BME280_humidity;BME280_pressure;Samples;Min_cycle;Max_cycle;Signal;HPM_P1;HPM_P2
2022/07/30 00:01:39;;;;;;;5.07;2.30;;;25.00;58.20;;;;;;5028552;28;20427;-68
2022/07/30 00:04:04;;;;;;;5.90;2.40;;;25.00;58.20;;;;;;5027941;28;20434;-69
2022/07/30 00:06:30;;;;;;;6.22;2.28;;;25.00;58.20;;;;;;5027420;28;20461;-68
2022/07/30 00:08:56;;;;;;;7.30;2.50;;;25.00;58.10;;;;;;5028456;28;20030;-69
2022/07/30 00:11:21;;;;;;;5.68;2.10;;;25.00;58.30;;;;;;5025592;28;20040;-68
2022/07/30 00:13:47;;;;;;;5.85;2.20;;;25.00;58.10;;;;;;5023187;28;20033;-68
2022/07/30 00:16:13;;;;;;;5.30;2.13;;;25.00;58.30;;;;;;5028897;28;20053;-69
2022/07/30 00:18:38;;;;;;;5.97;2.15;;;25.00;58.30;;;;;;5027266;28;20041;-69
2022/07/30 00:21:04;;;;;;;6.32;2.45;;;25.00;58.30;;;;;;5027235;28;20033;-68
2022/07/30 00:23:31;;;;;;;6.03;2.30;;;25.00;58.30;;;;;;5028523;28;20087;-69
2022/07/30 00:25:56;;;;;;;5.30;2.25;;;25.00;58.30;;;;;;5027361;28;20132;-69
2022/07/30 00:28:22;;;;;;;5.15;2.35;;;25.00;58.40;;;;;;5028370;28;20104;-68
2022/07/30 00:30:48;;;;;;;6.25;2.17;;;24.90;58.30;;;;;;5027236;28;20041;-69
2022/07/30 00:33:13;;;;;;;6.05;2.33;;;24.90;58.20;;;;;;5027842;28;20029;-69
2022/07/30 00:35:39;;;;;;;5.00;2.38;;;24.90;58.20;;;;;;5028607;28;20036;-68
2022/07/30 00:38:05;;;;;;;6.20;2.15;;;24.90;58.30;;;;;;5027370;28;20026;-69
2022/07/30 00:40:30;;;;;;;5.93;2.17;;;24.90;58.20;;;;;;5027742;28;20025;-68
2022/07/30 00:42:56;;;;;;;4.15;1.95;;;24.90;58.30;;;;;;5026446;28;20028;-69
2022/07/30 00:45:22;;;;;;;5.20;2.10;;;24.90;58.20;;;;;;5025734;28;20029;-69
2022/07/30 00:47:47;;;;;;;4.30;2.20;;;24.90;58.20;;;;;;5026388;28;20038;-69
2022/07/30 00:50:13;;;;;;;5.45;2.20;;;24.90;58.10;;;;;;5026648;28;20549;-69
2022/07/30 00:52:39;;;;;;;4.53;2.17;;;24.80;58.10;;;;;;5025676;28;20620;-68
2022/07/30 00:55:06;;;;;;;4.60;2.08;;;24.80;58.00;;;;;;5029030;28;20025;-68
2022/07/30 00:57:32;;;;;;;6.63;2.47;;;24.90;58.10;;;;;;5025005;28;20041;-68
2022/07/30 00:59:58;;;;;;;4.85;2.22;;;24.80;58.00;;;;;;5026640;28;20103;-69
2022/07/30 01:02:23;;;;;;;4.93;1.90;;;24.80;58.00;;;;;;5026506;28;20141;-68
2022/07/30 01:04:49;;;;;;;4.45;2.00;;;24.80;58.00;;;;;;5024663;28;20042;-68
2022/07/30 01:07:15;;;;;;;5.47;1.95;;;24.80;58.00;;;;;;5027900;28;20022;-68
2022/07/30 01:09:40;;;;;;;4.60;2.20;;;24.80;58.00;;;;;;5028210;28;20044;-68
2022/07/30 01:12:07;;;;;;;4.20;2.17;;;24.80;58.00;;;;;;5028919;28;20722;-69
2022/07/30 01:14:36;;;;;;;4.47;1.83;;;24.80;58.00;;;;;;5028087;28;20125;-68
2022/07/30 01:17:02;;;;;;;4.32;1.90;;;24.80;57.90;;;;;;5028306;28;20041;-68
2022/07/30 01:19:50;;;;;;;5.32;2.22;;;24.80;58.90;;;;;;5026232;28;20033;-68
2022/07/30 01:22:27;;;;;;;6.25;2.40;;;24.80;57.90;;;;;;5026178;28;20033;-68
2022/07/30 01:25:35;;;;;;;4.32;2.00;;;24.80;58.00;;;;;;5026665;28;20026;-68
2022/07/30 01:28:07;;;;;;;4.07;2.00;;;24.70;57.90;;;;;;4986473;28;20038;-68
2022/07/30 01:30:34;;;;;;;4.13;2.03;;;24.80;57.90;;;;;;4985116;28;20463;-68
2022/07/30 01:33:00;;;;;;;4.35;2.03;;;24.70;57.80;;;;;;4970501;28;20030;-68
2022/07/30 01:35:27;;;;;;;5.75;1.95;;;24.70;57.70;;;;;;4969571;28;20096;-68
2022/07/30 01:37:53;;;;;;;4.72;2.10;;;24.70;57.80;;;;;;4987778;28;20934;-68
2022/07/30 01:40:19;;;;;;;3.63;1.85;;;24.70;57.70;;;;;;4954023;28;20129;-68
2022/07/30 01:42:45;;;;;;;3.55;1.90;;;24.70;57.70;;;;;;4986695;28;20113;-68
2022/07/30 01:45:10;;;;;;;3.20;1.70;;;24.70;57.70;;;;;;4950838;28;20427;-69
2022/07/30 01:47:37;;;;;;;4.05;2.00;;;24.70;57.70;;;;;;4987145;28;20037;-68
2022/07/30 01:50:05;;;;;;;3.42;1.90;;;24.70;57.70;;;;;;4985841;28;20117;-68
2022/07/30 01:52:32;;;;;;;4.85;2.25;;;24.60;57.60;;;;;;4951036;28;20039;-69
2022/07/30 01:54:57;;;;;;;3.88;1.90;;;24.60;57.60;;;;;;4998815;28;20117;-68
2022/07/30 01:57:23;;;;;;;4.00;2.00;;;24.60;57.60;;;;;;4953315;28;20137;-69
2022/07/30 01:59:50;;;;;;;3.70;1.90;;;24.60;57.60;;;;;;5022068;28;20140;-68
2022/07/30 02:02:16;;;;;;;3.17;1.80;;;24.60;57.60;;;;;;5026226;28;20494;-69
2022/07/30 02:04:42;;;;;;;4.57;1.95;;;24.60;57.60;;;;;;5053968;28;20036;-68
2022/07/30 02:07:23;;;;;;;4.22;1.95;;;24.60;57.60;;;;;;5026495;28;20033;-68
2022/07/30 02:09:54;;;;;;;3.47;1.92;;;24.60;57.60;;;;;;5024404;28;20108;-68
2022/07/30 02:12:29;;;;;;;5.40;1.98;;;24.60;57.60;;;;;;5025040;28;20029;-68
2022/07/30 02:15:13;;;;;;;;;;;24.60;57.60;;;;;;5007229;28;20033;-68
2022/07/30 02:18:16;;;;;;;3.30;1.77;;;24.60;57.60;;;;;;5024105;28;20451;-68
2022/07/30 02:20:44;;;;;;;4.03;2.10;;;24.60;57.50;;;;;;5018268;28;20041;-69
2022/07/30 02:23:10;;;;;;;3.78;1.98;;;24.50;57.50;;;;;;5025142;28;20103;-68
2022/07/30 02:25:37;;;;;;;3.92;1.65;;;24.50;57.50;;;;;;5026868;28;20056;-68
2022/07/30 02:28:04;;;;;;;4.70;1.90;;;24.50;57.40;;;;;;5038778;28;20025;-68
2022/07/30 02:30:31;;;;;;;4.25;2.03;;;24.50;57.50;;;;;;5024382;28;20025;-69
2022/07/30 02:33:11;;;;;;;4.93;2.25;;;24.50;57.50;;;;;;5022404;28;20041;-69
2022/07/30 02:35:37;;;;;;;3.83;1.90;;;24.50;57.40;;;;;;5023367;28;20029;-68
2022/07/30 02:38:02;;;;;;;4.38;2.00;;;24.50;57.50;;;;;;5026144;28;20456;-68
2022/07/30 02:40:28;;;;;;;3.63;1.85;;;24.50;57.40;;;;;;5026157;28;20022;-68
2022/07/30 02:42:54;;;;;;;3.53;1.80;;;24.50;57.50;;;;;;5023609;28;20033;-69
2022/07/30 02:45:20;;;;;;;3.25;1.80;;;24.50;57.50;;;;;;5023983;28;20033;-68
2022/07/30 02:47:49;;;;;;;4.55;1.98;;;24.50;57.40;;;;;;5024569;28;20509;-68
2022/07/30 02:50:14;;;;;;;3.75;2.08;;;24.40;57.40;;;;;;5026635;28;20018;-68
2022/07/30 02:52:40;;;;;;;3.30;1.80;;;24.40;57.40;;;;;;5024692;28;20525;-69
2022/07/30 02:55:07;;;;;;;3.85;1.70;;;24.40;57.40;;;;;;5027468;28;20033;-68
2022/07/30 02:57:33;;;;;;;3.42;1.70;;;24.40;57.40;;;;;;5019838;28;20469;-69
2022/07/30 02:59:58;;;;;;;4.32;1.98;;;24.40;57.40;;;;;;5024816;28;20053;-68
2022/07/30 03:02:24;;;;;;;3.70;1.83;;;24.40;57.40;;;;;;5022312;28;20053;-68
2022/07/30 03:04:50;;;;;;;3.67;1.90;;;24.40;57.40;;;;;;5030372;28;20103;-68
2022/07/30 03:07:15;;;;;;;3.72;1.85;;;24.40;57.40;;;;;;5055447;28;20057;-69
2022/07/30 03:09:42;;;;;;;3.60;2.00;;;24.40;57.30;;;;;;5031295;28;20052;-68
2022/07/30 03:12:08;;;;;;;2.78;1.60;;;24.40;57.40;;;;;;5030266;28;20021;-68
2022/07/30 03:14:34;;;;;;;2.45;1.60;;;24.40;57.30;;;;;;5044827;28;20056;-68
2022/07/30 03:17:00;;;;;;;3.67;1.80;;;24.40;57.40;;;;;;5027159;28;20069;-68
2022/07/30 03:19:29;;;;;;;5.53;2.05;;;24.40;57.40;;;;;;5011404;28;20575;-68
2022/07/30 03:21:55;;;;;;;3.30;1.77;;;24.40;57.30;;;;;;5025431;28;20033;-68
2022/07/30 03:24:21;;;;;;;3.33;1.70;;;24.30;57.30;;;;;;5027439;28;20030;-68
2022/07/30 03:26:46;;;;;;;3.42;1.90;;;24.40;57.30;;;;;;5030255;28;20022;-68
2022/07/30 03:29:12;;;;;;;3.17;1.70;;;24.40;57.40;;;;;;5058852;28;20505;-68
2022/07/30 03:31:38;;;;;;;3.38;1.92;;;24.30;57.30;;;;;;5011335;28;20083;-68
2022/07/30 03:34:05;;;;;;;3.33;1.80;;;24.30;57.30;;;;;;5028531;28;20024;-68
2022/07/30 03:36:31;;;;;;;3.38;1.83;;;24.30;57.30;;;;;;5028744;28;20037;-68
2022/07/30 03:38:56;;;;;;;2.45;1.55;;;24.30;57.30;;;;;;5028924;28;20516;-69
2022/07/30 03:41:22;;;;;;;4.53;1.75;;;24.30;58.40;;;;;;5029622;28;20036;-68
2022/07/30 03:43:48;;;;;;;3.05;1.73;;;24.30;57.40;;;;;;5028288;28;20033;-68
2022/07/30 03:46:14;;;;;;;2.70;1.55;;;24.30;57.40;;;;;;5029470;28;20168;-68
2022/07/30 03:48:39;;;;;;;3.58;1.70;;;24.30;57.40;;;;;;5030277;28;20029;-68
2022/07/30 03:51:06;;;;;;;3.00;1.75;;;24.30;57.40;;;;;;5027391;28;20025;-68
2022/07/30 03:53:31;;;;;;;3.90;1.80;;;24.30;57.40;;;;;;5025984;28;20041;-69
2022/07/30 03:55:57;;;;;;;2.88;1.52;;;24.20;57.30;;;;;;5028960;28;20617;-68
2022/07/30 03:58:22;;;;;;;3.33;1.70;;;24.30;57.40;;;;;;5027387;28;20436;-68
2022/07/30 04:00:49;;;;;;;3.42;1.70;;;24.30;57.40;;;;;;5028074;28;20591;-68
2022/07/30 04:03:27;;;;;;;2.90;1.70;;;24.30;57.40;;;;;;5028892;28;20022;-68
2022/07/30 04:05:53;;;;;;;3.00;1.63;;;24.30;57.40;;;;;;5026538;28;20036;-68
2022/07/30 04:08:18;;;;;;;3.60;1.77;;;24.20;58.40;;;;;;5027458;28;20030;-68
2022/07/30 04:10:44;;;;;;;4.22;1.77;;;24.20;57.30;;;;;;5027102;28;20080;-69
2022/07/30 04:13:10;;;;;;;2.78;1.60;;;24.20;57.30;;;;;;5028545;28;20037;-68
2022/07/30 04:15:40;;;;;;;4.00;1.60;;;24.20;57.40;;;;;;5031007;28;20508;-68
2022/07/30 04:18:06;;;;;;;2.63;1.58;;;24.20;57.30;;;;;;5019839;28;20030;-68
2022/07/30 04:20:35;;;;;;;3.22;1.70;;;24.20;57.40;;;;;;5012986;28;20052;-69
2022/07/30 04:23:01;;;;;;;3.33;1.75;;;24.20;57.30;;;;;;5022242;28;20142;-68
2022/07/30 04:25:27;;;;;;;3.05;1.65;;;24.20;57.30;;;;;;5011309;28;20104;-68
2022/07/30 04:27:53;;;;;;;3.28;1.58;;;24.20;57.30;;;;;;5010300;28;20029;-68
2022/07/30 04:30:18;;;;;;;3.03;1.70;;;24.20;57.30;;;;;;5028891;28;20113;-68
2022/07/30 04:32:44;;;;;;;3.08;1.60;;;24.20;57.30;;;;;;5028617;28;20113;-68
2022/07/30 04:35:09;;;;;;;3.20;1.75;;;24.10;57.30;;;;;;5007549;28;20060;-68
2022/07/30 04:37:35;;;;;;;3.25;1.60;;;24.10;57.30;;;;;;5029217;28;20044;-68
2022/07/30 04:40:01;;;;;;;4.35;1.70;;;24.10;57.30;;;;;;5026821;28;20025;-68
2022/07/30 04:42:27;;;;;;;3.50;1.63;;;24.10;57.30;;;;;;5027574;28;20029;-68
2022/07/30 04:44:53;;;;;;;3.92;1.60;;;24.10;57.30;;;;;;5027828;28;20627;-68
2022/07/30 04:47:18;;;;;;;3.95;1.50;;;24.10;57.30;;;;;;5023524;28;20037;-68
2022/07/30 04:49:44;;;;;;;3.00;1.60;;;24.10;57.30;;;;;;5028706;28;20032;-68
2022/07/30 04:52:10;;;;;;;3.38;1.70;;;24.10;57.30;;;;;;5030698;28;20048;-69
2022/07/30 04:54:55;;;;;;;3.42;1.73;;;24.10;57.30;;;;;;5028023;28;20494;-68
2022/07/30 04:57:21;;;;;;;3.58;1.50;;;24.10;57.30;;;;;;5028547;28;20041;-69
2022/07/30 04:59:46;;;;;;;2.67;1.60;;;24.10;57.30;;;;;;5027464;28;20040;-68
2022/07/30 05:02:12;;;;;;;2.92;1.67;;;24.10;57.30;;;;;;5027803;28;20021;-68
2022/07/30 05:04:38;;;;;;;2.17;1.40;;;24.10;57.30;;;;;;5025811;28;20023;-68
2022/07/30 05:07:03;;;;;;;2.45;1.40;;;24.10;57.30;;;;;;5027291;28;20404;-68
2022/07/30 05:09:29;;;;;;;2.80;1.55;;;24.10;57.30;;;;;;5027007;28;20104;-68
2022/07/30 05:11:55;;;;;;;3.08;1.60;;;24.10;57.30;;;;;;5025173;28;20052;-68
2022/07/30 05:14:21;;;;;;;3.20;1.70;;;24.10;57.30;;;;;;5025819;28;20029;-68
2022/07/30 05:16:47;;;;;;;2.50;1.42;;;24.10;57.30;;;;;;5029797;28;20029;-68
2022/07/30 05:19:13;;;;;;;3.03;1.70;;;24.10;57.30;;;;;;5021315;28;20506;-68
2022/07/30 05:21:38;;;;;;;2.55;1.60;;;24.10;57.30;;;;;;5025995;28;20033;-68
2022/07/30 05:24:04;;;;;;;3.05;1.75;;;24.10;57.30;;;;;;5024967;28;20022;-68
2022/07/30 05:26:30;;;;;;;2.78;1.55;;;24.10;57.30;;;;;;5022703;28;20037;-68
2022/07/30 05:28:56;;;;;;;2.05;1.40;;;24.00;57.20;;;;;;5025564;28;20017;-69
2022/07/30 05:31:21;;;;;;;3.00;1.50;;;24.00;57.20;;;;;;5023833;28;20485;-69
2022/07/30 05:33:47;;;;;;;3.03;1.67;;;24.00;57.20;;;;;;5025326;28;20318;-68
2022/07/30 05:36:12;;;;;;;2.35;1.55;;;24.00;57.30;;;;;;5026459;28;20626;-68
2022/07/30 05:38:38;;;;;;;3.30;1.55;;;24.00;57.20;;;;;;5027576;28;20505;-68
2022/07/30 05:41:04;;;;;;;2.80;1.45;;;24.00;57.20;;;;;;5025695;28;20049;-68
2022/07/30 05:43:29;;;;;;;2.58;1.60;;;24.00;57.20;;;;;;5027271;28;20086;-68
2022/07/30 05:45:55;;;;;;;2.50;1.55;;;24.00;57.20;;;;;;5024477;28;20502;-68
2022/07/30 05:48:21;;;;;;;2.83;1.50;;;24.00;57.20;;;;;;5025185;28;20107;-68
2022/07/30 05:50:46;;;;;;;2.65;1.55;;;24.00;57.20;;;;;;5022364;28;20099;-68
2022/07/30 05:53:12;;;;;;;2.58;1.45;;;24.00;57.20;;;;;;5020673;28;20092;-68
2022/07/30 05:55:38;;;;;;;2.53;1.40;;;24.00;57.20;;;;;;5025473;28;20033;-68
2022/07/30 05:58:03;;;;;;;1.85;1.30;;;24.00;57.20;;;;;;5023608;28;20037;-68
2022/07/30 06:00:29;;;;;;;2.53;1.42;;;24.00;57.20;;;;;;5023487;28;20029;-68
2022/07/30 06:02:54;;;;;;;3.28;1.48;;;24.00;57.20;;;;;;5024926;28;20018;-69
2022/07/30 06:05:20;;;;;;;2.85;1.65;;;24.00;57.40;;;;;;5025976;28;20022;-68
2022/07/30 06:07:46;;;;;;;3.78;1.52;;;24.00;57.20;;;;;;5023417;28;20029;-68
2022/07/30 06:10:12;;;;;;;3.35;1.40;;;24.00;57.20;;;;;;5025265;28;20116;-68
2022/07/30 06:12:38;;;;;;;5.60;1.70;;;24.00;57.20;;;;;;5024680;28;20092;-68
2022/07/30 06:15:04;;;;;;;3.20;1.35;;;24.00;57.30;;;;;;5023143;28;20021;-68
2022/07/30 06:17:30;;;;;;;3.53;1.50;;;24.00;57.40;;;;;;5025753;28;20041;-68
2022/07/30 06:19:57;;;;;;;3.33;1.60;;;24.00;57.20;;;;;;5023266;28;20028;-68
2022/07/30 06:22:23;;;;;;;2.97;1.48;;;24.00;57.20;;;;;;5025083;28;20026;-68
2022/07/30 06:24:49;;;;;;;3.92;1.40;;;24.00;57.30;;;;;;5027125;28;20048;-68
2022/07/30 06:27:14;;;;;;;5.82;1.48;;;23.90;57.20;;;;;;5025167;28;20100;-68
2022/07/30 06:29:40;;;;;;;3.25;1.40;;;23.90;57.20;;;;;;5028072;28;20079;-67
2022/07/30 06:32:06;;;;;;;2.85;1.42;;;23.90;57.30;;;;;;5025964;28;20418;-68
2022/07/30 06:34:31;;;;;;;3.20;1.50;;;23.90;57.30;;;;;;5023987;28;20029;-68
2022/07/30 06:36:57;;;;;;;3.20;1.50;;;23.90;57.30;;;;;;5025065;28;20041;-68
2022/07/30 06:39:22;;;;;;;2.95;1.50;;;23.90;57.30;;;;;;5024767;28;20029;-68
2022/07/30 06:41:48;;;;;;;3.13;1.50;;;23.90;57.30;;;;;;5025110;28;20057;-68
2022/07/30 06:44:14;;;;;;;2.15;1.40;;;23.90;57.30;;;;;;5026265;28;20053;-68
2022/07/30 06:46:39;;;;;;;4.80;1.50;;;23.90;57.30;;;;;;5026811;28;20066;-68
2022/07/30 06:49:05;;;;;;;4.50;1.52;;;23.90;57.30;;;;;;5021723;28;20034;-68
2022/07/30 06:51:31;;;;;;;4.93;1.40;;;23.90;57.30;;;;;;5027422;28;20052;-68
2022/07/30 06:53:56;;;;;;;4.10;1.63;;;23.90;57.30;;;;;;5024132;28;20043;-68
2022/07/30 06:56:22;;;;;;;2.58;1.33;;;23.90;57.30;;;;;;5025065;28;20037;-68
2022/07/30 06:58:48;;;;;;;4.50;1.58;;;23.90;57.30;;;;;;5028929;28;20036;-68
2022/07/30 07:01:13;;;;;;;4.70;1.60;;;23.80;57.30;;;;;;5026939;28;20029;-68
2022/07/30 07:03:39;;;;;;;4.43;1.52;;;23.90;57.30;;;;;;5026100;28;20025;-66
2022/07/30 07:06:05;;;;;;;3.65;1.50;;;23.80;57.20;;;;;;5024810;28;20093;-68
2022/07/30 07:08:30;;;;;;;4.80;1.60;;;23.90;57.30;;;;;;5027164;28;20030;-68
2022/07/30 07:10:56;;;;;;;3.25;1.50;;;23.90;57.30;;;;;;5022577;28;20025;-68
2022/07/30 07:13:22;;;;;;;2.92;1.40;;;23.80;57.20;;;;;;5024031;28;20021;-68
2022/07/30 07:15:47;;;;;;;4.25;1.55;;;23.80;57.20;;;;;;5025812;28;20033;-68
2022/07/30 07:18:14;;;;;;;2.63;1.35;;;23.80;57.30;;;;;;5025332;28;20552;-68
2022/07/30 07:20:39;;;;;;;2.35;1.20;;;23.80;57.30;;;;;;5026660;28;20033;-68
2022/07/30 07:23:05;;;;;;;2.55;1.42;;;23.80;57.20;;;;;;5025686;28;20150;-68
2022/07/30 07:25:31;;;;;;;2.00;1.35;;;23.80;57.20;;;;;;5025886;28;20409;-69
2022/07/30 07:27:56;;;;;;;2.47;1.40;;;23.80;57.20;;;;;;5024382;28;20076;-68
2022/07/30 07:30:22;;;;;;;4.88;1.55;;;23.80;57.30;;;;;;5025019;28;20036;-68
2022/07/30 07:32:47;;;;;;;4.53;1.50;;;23.80;57.20;;;;;;5025316;28;20084;-68
2022/07/30 07:35:13;;;;;;;2.42;1.30;;;23.80;57.20;;;;;;5024690;28;20026;-68
2022/07/30 07:37:39;;;;;;;2.67;1.38;;;23.80;57.20;;;;;;5025706;28;20033;-68
2022/07/30 07:40:05;;;;;;;2.70;1.30;;;23.80;57.20;;;;;;5026198;28;20026;-68
2022/07/30 07:42:31;;;;;;;2.75;1.40;;;23.80;57.20;;;;;;5026029;28;20022;-68
2022/07/30 07:44:56;;;;;;;2.45;1.40;;;23.80;57.30;;;;;;5023613;28;20021;-68
2022/07/30 07:47:22;;;;;;;4.97;1.70;;;23.80;57.20;;;;;;5022994;28;20033;-68
2022/07/30 07:49:48;;;;;;;4.75;1.58;;;23.80;57.20;;;;;;5022862;28;20029;-68
2022/07/30 07:52:13;;;;;;;4.47;1.52;;;23.80;57.40;;;;;;5024614;28;20442;-68
2022/07/30 07:54:39;;;;;;;4.25;1.63;;;23.80;57.90;;;;;;5025518;28;20060;-69
2022/07/30 07:57:06;;;;;;;3.33;1.10;;;23.80;57.70;;;;;;5027667;28;20067;-68
2022/07/30 07:59:33;;;;;;;6.20;1.42;;;23.80;58.20;;;;;;5027748;28;20025;-69
2022/07/30 08:01:59;;;;;;;5.88;1.70;;;23.70;58.80;;;;;;5043926;28;20124;-69
2022/07/30 08:04:24;;;;;;;5.75;1.30;;;23.70;59.00;;;;;;5030772;28;20097;-68
2022/07/30 08:06:50;;;;;;;5.18;1.50;;;23.60;59.10;;;;;;5028124;28;20041;-68
2022/07/30 08:09:16;;;;;;;8.30;1.52;;;23.60;59.30;;;;;;5026921;28;20504;-68
2022/07/30 08:11:43;;;;;;;4.00;1.60;;;23.60;59.50;;;;;;5031839;28;20112;-67
2022/07/30 08:14:09;;;;;;;4.70;1.75;;;23.60;59.70;;;;;;5027715;28;20478;-67
2022/07/30 08:16:35;;;;;;;6.38;1.60;;;23.60;59.50;;;;;;5026657;28;20130;-68
2022/07/30 08:19:03;;;;;;;4.53;1.55;;;23.60;59.60;;;;;;5028657;28;20560;-67
2022/07/30 08:21:28;;;;;;;6.35;1.52;;;23.60;60.00;;;;;;5029358;28;20034;-69
2022/07/30 08:23:54;;;;;;;5.75;1.90;;;23.60;59.90;;;;;;5030201;28;20026;-68
2022/07/30 08:26:20;;;;;;;6.05;2.33;;;23.60;60.20;;;;;;5031312;28;20029;-68
2022/07/30 08:28:46;;;;;;;7.95;2.30;;;23.60;60.00;;;;;;5028535;28;20029;-68
2022/07/30 08:31:12;;;;;;;6.55;2.33;;;23.60;60.00;;;;;;5028350;28;20025;-70
2022/07/30 08:33:37;;;;;;;5.47;2.28;;;23.60;60.10;;;;;;5025840;28;20117;-69
2022/07/30 08:36:06;;;;;;;7.80;2.40;;;23.60;59.80;;;;;;5028644;28;20116;-68
2022/07/30 08:38:32;;;;;;;7.93;2.20;;;23.60;60.30;;;;;;5027871;28;20021;-69
2022/07/30 08:40:57;;;;;;;7.32;2.30;;;23.60;60.30;;;;;;5030638;28;20490;-69
2022/07/30 08:43:24;;;;;;;6.53;2.10;;;23.60;59.90;;;;;;5026227;28;20029;-69
2022/07/30 08:45:50;;;;;;;5.75;2.25;;;23.60;60.10;;;;;;5031483;28;20064;-69
2022/07/30 08:48:16;;;;;;;5.05;2.08;;;23.60;60.00;;;;;;5028492;28;20109;-69
2022/07/30 08:50:42;;;;;;;5.85;2.15;;;23.60;60.30;;;;;;5055237;28;20110;-68
2022/07/30 08:53:08;;;;;;;7.00;2.20;;;23.60;60.30;;;;;;5022183;28;20066;-69
2022/07/30 08:55:33;;;;;;;7.38;2.17;;;23.60;60.30;;;;;;5027976;28;20418;-69
2022/07/30 08:57:59;;;;;;;5.45;2.20;;;23.60;60.30;;;;;;5026307;28;20043;-68
2022/07/30 09:00:25;;;;;;;4.28;1.92;;;23.60;60.60;;;;;;5026701;28;20057;-69
2022/07/30 09:02:51;;;;;;;5.15;1.90;;;23.60;60.40;;;;;;5027557;28;20029;-69
2022/07/30 09:05:18;;;;;;;7.75;2.53;;;23.50;60.20;;;;;;5026654;28;20044;-70
2022/07/30 09:07:43;;;;;;;7.00;2.15;;;23.60;60.10;;;;;;5024806;28;20021;-70
2022/07/30 09:10:09;;;;;;;4.68;2.17;;;23.60;60.00;;;;;;5025261;28;20036;-69
2022/07/30 09:12:42;;;;;;;4.13;1.95;;;23.60;60.00;;;;;;5026625;28;20018;-70
2022/07/30 09:15:16;;;;;;;5.93;1.73;;;23.60;59.90;;;;;;5027850;28;20030;-69
2022/07/30 09:17:53;;;;;;;6.22;1.90;;;23.60;59.90;;;;;;5027581;28;20806;-68
2022/07/30 09:20:20;;;;;;;4.88;1.85;;;23.60;59.70;;;;;;5026630;28;20036;-69
2022/07/30 09:22:51;;;;;;;7.65;1.95;;;23.60;59.90;;;;;;5020980;28;20032;-69
2022/07/30 09:25:31;;;;;;;4.93;2.00;;;23.60;59.80;;;;;;5026049;28;20033;-69
2022/07/30 09:27:57;;;;;;;5.32;2.17;;;23.60;59.90;;;;;;5023134;28;20117;-69
2022/07/30 09:30:23;;;;;;;7.88;2.13;;;23.60;59.90;;;;;;5027367;28;20108;-69
2022/07/30 09:32:53;;;;;;;6.95;2.22;;;23.60;59.90;;;;;;5025269;28;20057;-69
2022/07/30 09:35:19;;;;;;;5.90;2.50;;;23.60;59.90;;;;;;5027834;28;20033;-69
2022/07/30 09:37:45;;;;;;;5.30;2.15;;;23.60;60.00;;;;;;5023417;28;20500;-69
2022/07/30 09:40:15;;;;;;;6.57;2.10;;;23.60;59.90;;;;;;5027559;28;20044;-69
2022/07/30 09:42:41;;;;;;;6.57;2.63;;;23.60;59.90;;;;;;5027054;28;20047;-69
2022/07/30 09:45:08;;;;;;;5.45;2.50;;;23.60;60.00;;;;;;5026481;28;20637;-69
2022/07/30 09:47:35;;;;;;;5.70;2.40;;;23.70;60.20;;;;;;5026210;28;20025;-70
2022/07/30 09:50:23;;;;;;;6.43;3.08;;;23.70;60.20;;;;;;5028580;28;20029;-70
2022/07/30 09:52:49;;;;;;;5.72;2.38;;;23.70;60.70;;;;;;5028631;28;20136;-70
2022/07/30 09:55:28;;;;;;;7.35;2.60;;;23.70;60.50;;;;;;5025993;28;20116;-70
2022/07/30 09:57:59;;;;;;;7.65;2.85;;;23.70;60.80;;;;;;5024887;28;20053;-70
2022/07/30 10:00:26;;;;;;;9.20;3.97;;;23.70;60.50;;;;;;5023721;28;20037;-69
2022/07/30 10:02:52;;;;;;;9.70;3.28;;;23.80;60.70;;;;;;5024839;28;20045;-70
2022/07/30 10:05:18;;;;;;;6.40;2.47;;;23.70;61.00;;;;;;5026380;28;20605;-70
2022/07/30 10:08:09;;;;;;;6.97;2.58;;;23.70;61.00;;;;;;5027182;28;20117;-69
2022/07/30 10:10:35;;;;;;;5.82;2.60;;;23.70;61.00;;;;;;5018550;28;20050;-70
2022/07/30 10:13:02;;;;;;;4.88;2.33;;;23.70;61.10;;;;;;5028763;28;20458;-70
2022/07/30 10:15:32;;;;;;;7.50;2.45;;;23.70;61.10;;;;;;5025608;28;20025;-70
2022/07/30 10:17:59;;;;;;;7.68;2.20;;;23.70;61.40;;;;;;5026543;28;20064;-70
2022/07/30 10:20:25;;;;;;;4.78;2.10;;;23.70;61.40;;;;;;5026177;28;20053;-70
2022/07/30 10:22:51;;;;;;;7.53;2.30;;;23.70;61.30;;;;;;5025588;28;20053;-70
2022/07/30 10:25:18;;;;;;;3.72;1.83;;;23.70;61.60;;;;;;5023424;28;20087;-70
2022/07/30 10:27:44;;;;;;;4.97;1.88;;;23.70;61.20;;;;;;5026223;28;20025;-70
2022/07/30 10:30:10;;;;;;;5.35;1.75;;;23.70;61.10;;;;;;5024023;28;20587;-70
2022/07/30 10:32:36;;;;;;;5.63;1.60;;;23.70;61.00;;;;;;5023994;28;20051;-70
2022/07/30 10:35:02;;;;;;;5.20;1.73;;;23.70;61.20;;;;;;5025390;28;20033;-70
2022/07/30 10:37:28;;;;;;;3.35;1.85;;;23.70;60.80;;;;;;5027298;28;20044;-70
2022/07/30 10:40:15;;;;;;;3.00;1.42;;;23.70;60.90;;;;;;5028235;28;20022;-70
2022/07/30 10:42:53;;;;;;;2.88;1.40;;;23.70;60.80;;;;;;5053547;28;20128;-71
2022/07/30 10:45:21;;;;;;;3.13;1.52;;;23.70;60.70;;;;;;5024199;28;20053;-70
2022/07/30 10:47:47;;;;;;;5.55;1.50;;;23.70;60.90;;;;;;5028066;28;20030;-70
2022/07/30 10:50:15;;;;;;;3.38;1.45;;;23.70;61.00;;;;;;5030798;28;20049;-70
2022/07/30 10:52:58;;;;;;;3.88;1.77;;;23.80;60.80;;;;;;5025616;28;20537;-71
2022/07/30 10:55:27;;;;;;;9.30;1.80;;;23.80;60.80;;;;;;5018901;28;20497;-70
2022/07/30 10:58:05;;;;;;;5.22;1.90;;;23.80;60.70;;;;;;5020123;28;20037;-70
2022/07/30 11:00:32;;;;;;;3.35;1.48;;;23.90;60.50;;;;;;5021568;28;20029;-69
2022/07/30 11:03:14;;;;;;;3.95;1.50;;;23.90;61.10;;;;;;5024193;28;20048;-70
2022/07/30 11:05:40;;;;;;;4.30;1.58;;;23.80;61.10;;;;;;5021772;28;20060;-70
2022/07/30 11:08:39;;;;;;;3.92;1.48;;;23.90;61.10;;;;;;5017705;28;20793;-73
2022/07/30 11:11:29;;;;;;;5.95;1.40;;;23.90;60.90;;;;;;5028412;28;20064;-70
2022/07/30 11:14:01;;;;;;;8.55;1.60;;;23.90;61.10;;;;;;5020923;28;20640;-74
2022/07/30 11:16:32;;;;;;;5.60;1.80;;;23.90;61.50;;;;;;5031243;28;20510;-70
2022/07/30 11:19:15;;;;;;;5.05;1.90;;;23.90;61.40;;;;;;5022187;28;20026;-71
2022/07/30 11:21:42;;;;;;;3.78;1.67;;;23.90;61.30;;;;;;5021623;28;20700;-70
2022/07/30 11:24:40;;;;;;;4.30;1.98;;;23.90;61.30;;;;;;5023875;28;20037;-70
2022/07/30 11:27:06;;;;;;;7.25;2.30;;;23.90;61.20;;;;;;5029870;28;20022;-70
2022/07/30 11:29:55;;;;;;;6.38;2.10;;;23.90;61.70;;;;;;5032089;28;20043;-73
2022/07/30 11:32:25;;;;;;;4.97;1.85;;;23.90;61.60;;;;;;5027248;28;20533;-72
2022/07/30 11:34:51;;;;;;;5.03;2.10;;;23.90;61.50;;;;;;5029939;28;20048;-73
2022/07/30 11:37:17;;;;;;;4.22;1.90;;;23.90;61.30;;;;;;5027600;28;20042;-71
2022/07/30 11:39:55;;;;;;;3.78;1.90;;;23.90;61.40;;;;;;5028193;28;20466;-69
2022/07/30 11:42:27;;;;;;;6.10;2.10;;;23.90;61.50;;;;;;5027848;28;20086;-70
2022/07/30 11:45:12;;;;;;;4.65;2.00;;;23.90;61.50;;;;;;5026411;28;20051;-71
2022/07/30 11:47:38;;;;;;;3.63;1.77;;;24.00;61.50;;;;;;5027012;28;20716;-72
2022/07/30 11:50:04;;;;;;;5.53;2.10;;;24.00;61.30;;;;;;5028429;28;20030;-71
2022/07/30 11:52:30;;;;;;;7.85;2.15;;;24.00;61.20;;;;;;5022872;28;20045;-71
2022/07/30 11:54:56;;;;;;;14.98;1.70;;;24.00;61.10;;;;;;5023559;28;20041;-72
2022/07/30 11:57:41;;;;;;;6.00;1.65;;;24.10;60.80;;;;;;5027054;28;20133;-71
2022/07/30 12:00:08;;;;;;;4.18;1.40;;;24.10;60.80;;;;;;5029926;28;20041;-72
2022/07/30 12:02:35;;;;;;;3.97;1.42;;;24.10;60.50;;;;;;5028842;28;20035;-71
2022/07/30 12:05:03;;;;;;;3.05;1.23;;;24.10;60.80;;;;;;5020823;28;20033;-70
2022/07/30 12:07:30;;;;;;;3.97;1.23;;;24.10;60.70;;;;;;5026913;28;20053;-70
2022/07/30 12:10:17;;;;;;;4.30;1.38;;;24.10;60.50;;;;;;5021762;28;20079;-70
2022/07/30 12:12:44;;;;;;;3.38;1.33;;;24.10;60.70;;;;;;5029489;28;20038;-71
2022/07/30 12:15:27;;;;;;;3.63;1.48;;;24.20;60.60;;;;;;5029704;28;20037;-70
2022/07/30 12:17:53;;;;;;;2.63;1.30;;;24.20;60.90;;;;;;5027447;28;20038;-70
2022/07/30 12:20:19;;;;;;;2.83;1.20;;;24.30;61.10;;;;;;5029026;28;20501;-70
2022/07/30 12:22:45;;;;;;;2.30;1.10;;;24.30;61.30;;;;;;5024957;28;20520;-70
2022/07/30 12:25:13;;;;;;;2.35;1.25;;;24.20;61.20;;;;;;5024581;28;20100;-70
2022/07/30 12:27:39;;;;;;;3.03;1.25;;;24.30;61.30;;;;;;5021027;28;20029;-70
2022/07/30 12:30:12;;;;;;;3.92;1.20;;;24.30;61.20;;;;;;5026239;28;20076;-71
2022/07/30 12:32:41;;;;;;;3.40;1.25;;;24.30;61.30;;;;;;5022573;28;20115;-68
2022/07/30 12:35:07;;;;;;;3.97;1.20;;;24.30;61.20;;;;;;5024000;28;20030;-69
2022/07/30 12:37:33;;;;;;;3.80;1.33;;;24.30;61.10;;;;;;5027502;28;20402;-70
2022/07/30 12:40:14;;;;;;;3.67;1.15;;;24.30;61.10;;;;;;5024925;28;20049;-70
2022/07/30 12:42:52;;;;;;;4.93;1.13;;;24.30;61.20;;;;;;5024729;28;20025;-71
2022/07/30 12:45:31;;;;;;;3.10;1.20;;;24.40;61.20;;;;;;5023498;28;20037;-69
2022/07/30 12:47:59;;;;;;;4.13;1.50;;;24.50;61.10;;;;;;5023673;28;20052;-70
2022/07/30 12:50:25;;;;;;;5.95;1.63;;;24.50;60.90;;;;;;5023268;28;20030;-69
2022/07/30 12:52:55;;;;;;;4.43;1.33;;;24.60;60.40;;;;;;5026019;28;20049;-71